Terminal Aerodrome Forecast
Issued by NWS St Louis, MO

Home | Current Version | Previous Version | Text Only | Print | Product List | Glossary On
Versions: 1 2 3 4 5 6 7 8 9 10 11 12 13 14
988
FTUS43 KLSX 080529
TAFCOU
TAF
KCOU 080529Z 0806/0906 31011G20KT P6SM SKC
     FM081300 30014G24KT P6SM SCT250
     FM090000 30008KT P6SM SKC=

USA.gov is the U.S. government's official web portal to all federal, state and local government web resources and services.